Hauptseite
METAR-TAF:

METAR-TAF

Flughäfen :

Flughafen Rostock-Laage

Rostock, Deutschland

Breite: 53-55N, Länge: 012-17E, Höhe: 40 m

Beobachtung

Neuester Wetterbericht von vor 37 Minuten, um 04:20 UTC
Wind 1 kt aus Ost/Südost
Temperatur 14°C
Luftfeuchtigkeit 100%
Luftdruck 1022 hPa
Sichtweite 10 km oder mehr
Leicht bewölkt in der Höhe von 4000 ft
Flacher Nebel,

METAR: ETNL 190420Z 11001KT 9999 MIFG FEW040 14/14 Q1022 BLU+BLU+

Zeit: 06:57 (04:57 UTC)

Prognose

Neuester Wetterbericht von vor 53 Minuten, um 04:04 UTC
Gültige Prognose vom 19 um 05 UTC bis 19 um 17 UTC
Wind 3 kt aus unterschiedlichen Richtungen
Sichtweite 10 km oder mehr
Leicht bewölkt in der Höhe von 4000 ft
Übergehend zu
vom 19 um 09 UTC bis 19 um 11 UTC
Wind 7 kt aus Nord/Nordwest
Sichtweite 10 km oder mehr
Leicht bewölkt in der Höhe von 5000 ft

TAF: ETNL 190404Z 1905/1917 VRB03KT 9999 NSW FEW040 BECMG 1909/1911 34007KT 9999 NSW FEW050

Wetterbeobachtungen und Prognosen von mehr als 4000 Flughäfen (METAR und TAF Bericht).

Die verfügbaren Stationen werden durch gelbe und rote Markierungen auf der Karte dargestellt.

Führen Sie die Maus auf sie, um den Namen der Station zu sehen.

Darauf klicken, um die Beobachtung von Wetterbeobachtungen und Prognosen zu sehen.

Um die Karte zu ändern : klicken Sie auf den grünen Tasten mit einem schwarzen Kreuz Zum Vergrößern, auf den grünen Button mit einem Gedankenstrich zu verkleinern, oder auf die grünen Pfeile für benachbarte Karten.


METAR-TAF: